sensor_id;sensor_type;location;lat;lon;timestamp;temperature;humidity
16625;DHT22;8426;48.496;9.098;2024-03-02T00:00:34;4.00;99.90
16625;DHT22;8426;48.496;9.098;2024-03-02T00:05:38;4.00;99.90
16625;DHT22;8426;48.496;9.098;2024-03-02T00:10:42;3.90;99.90
16625;DHT22;8426;48.496;9.098;2024-03-02T00:15:51;3.80;99.90
16625;DHT22;8426;48.496;9.098;2024-03-02T00:20:55;3.90;99.90
16625;DHT22;8426;48.496;9.098;2024-03-02T00:26:00;3.90;99.90
16625;DHT22;8426;48.496;9.098;2024-03-02T00:31:06;4.10;99.90
16625;DHT22;8426;48.496;9.098;2024-03-02T00:36:11;4.00;99.90
16625;DHT22;8426;48.496;9.098;2024-03-02T00:41:19;4.00;99.90
16625;DHT22;8426;48.496;9.098;2024-03-02T00:46:27;3.90;99.90
16625;DHT22;8426;48.496;9.098;2024-03-02T00:51:34;3.90;99.90
16625;DHT22;8426;48.496;9.098;2024-03-02T00:56:38;3.90;99.90
16625;DHT22;8426;48.496;9.098;2024-03-02T01:01:47;3.80;99.90
16625;DHT22;8426;48.496;9.098;2024-03-02T01:06:51;3.70;99.90
16625;DHT22;8426;48.496;9.098;2024-03-02T01:11:55;3.70;99.90
16625;DHT22;8426;48.496;9.098;2024-03-02T01:17:00;3.60;99.90
16625;DHT22;8426;48.496;9.098;2024-03-02T01:22:05;3.50;99.90
16625;DHT22;8426;48.496;9.098;2024-03-02T01:27:09;3.40;99.90
16625;DHT22;8426;48.496;9.098;2024-03-02T01:32:15;3.20;99.90
16625;DHT22;8426;48.496;9.098;2024-03-02T01:37:18;3.00;99.90
16625;DHT22;8426;48.496;9.098;2024-03-02T01:42:22;3.00;99.90
16625;DHT22;8426;48.496;9.098;2024-03-02T01:47:27;2.80;99.90
16625;DHT22;8426;48.496;9.098;2024-03-02T01:52:34;2.80;99.90
16625;DHT22;8426;48.496;9.098;2024-03-02T01:57:37;2.70;99.90
16625;DHT22;8426;48.496;9.098;2024-03-02T02:02:42;2.60;99.90
16625;DHT22;8426;48.496;9.098;2024-03-02T02:07:46;2.50;99.90
16625;DHT22;8426;48.496;9.098;2024-03-02T02:12:50;2.40;99.90
16625;DHT22;8426;48.496;9.098;2024-03-02T02:17:55;2.20;99.90
16625;DHT22;8426;48.496;9.098;2024-03-02T02:23:02;2.10;99.90
16625;DHT22;8426;48.496;9.098;2024-03-02T02:28:06;2.10;99.90
16625;DHT22;8426;48.496;9.098;2024-03-02T02:33:10;1.90;99.90
16625;DHT22;8426;48.496;9.098;2024-03-02T02:38:15;1.80;99.90
16625;DHT22;8426;48.496;9.098;2024-03-02T02:43:18;1.70;99.90
16625;DHT22;8426;48.496;9.098;2024-03-02T02:48:22;1.70;99.90
16625;DHT22;8426;48.496;9.098;2024-03-02T02:53:27;1.60;99.90
16625;DHT22;8426;48.496;9.098;2024-03-02T02:58:30;1.60;99.90
16625;DHT22;8426;48.496;9.098;2024-03-02T03:03:34;1.50;99.90
16625;DHT22;8426;48.496;9.098;2024-03-02T03:08:39;1.50;99.90
16625;DHT22;8426;48.496;9.098;2024-03-02T03:14:01;1.40;99.90
16625;DHT22;8426;48.496;9.098;2024-03-02T03:19:05;1.30;99.90
16625;DHT22;8426;48.496;9.098;2024-03-02T03:24:11;1.20;99.90
16625;DHT22;8426;48.496;9.098;2024-03-02T03:29:14;1.20;99.90
16625;DHT22;8426;48.496;9.098;2024-03-02T03:34:18;1.20;99.90
16625;DHT22;8426;48.496;9.098;2024-03-02T03:39:23;1.10;99.90
16625;DHT22;8426;48.496;9.098;2024-03-02T03:44:27;1.00;99.90
16625;DHT22;8426;48.496;9.098;2024-03-02T03:49:30;0.90;99.90
16625;DHT22;8426;48.496;9.098;2024-03-02T03:54:35;0.90;99.90
16625;DHT22;8426;48.496;9.098;2024-03-02T03:59:40;0.90;99.90
16625;DHT22;8426;48.496;9.098;2024-03-02T04:04:44;0.80;99.90
16625;DHT22;8426;48.496;9.098;2024-03-02T04:09:50;0.80;99.90
16625;DHT22;8426;48.496;9.098;2024-03-02T04:14:53;0.70;99.90
16625;DHT22;8426;48.496;9.098;2024-03-02T04:19:57;0.80;99.90
16625;DHT22;8426;48.496;9.098;2024-03-02T04:25:02;0.70;99.90
16625;DHT22;8426;48.496;9.098;2024-03-02T04:30:07;0.60;99.90
16625;DHT22;8426;48.496;9.098;2024-03-02T04:35:11;0.60;99.90
16625;DHT22;8426;48.496;9.098;2024-03-02T04:40:16;0.60;99.90
16625;DHT22;8426;48.496;9.098;2024-03-02T04:45:20;0.70;99.90
16625;DHT22;8426;48.496;9.098;2024-03-02T04:50:23;0.70;99.90
16625;DHT22;8426;48.496;9.098;2024-03-02T04:55:28;0.60;99.90
16625;DHT22;8426;48.496;9.098;2024-03-02T05:00:48;0.60;99.90
16625;DHT22;8426;48.496;9.098;2024-03-02T05:05:52;0.50;99.90
16625;DHT22;8426;48.496;9.098;2024-03-02T05:10:56;0.40;99.90
16625;DHT22;8426;48.496;9.098;2024-03-02T05:16:21;0.40;99.90
16625;DHT22;8426;48.496;9.098;2024-03-02T05:21:24;0.60;99.90
16625;DHT22;8426;48.496;9.098;2024-03-02T05:26:29;0.60;99.90
16625;DHT22;8426;48.496;9.098;2024-03-02T05:31:33;0.60;99.90
16625;DHT22;8426;48.496;9.098;2024-03-02T05:36:37;0.50;99.90
16625;DHT22;8426;48.496;9.098;2024-03-02T05:41:42;0.50;99.90
16625;DHT22;8426;48.496;9.098;2024-03-02T05:46:46;0.50;99.90
16625;DHT22;8426;48.496;9.098;2024-03-02T05:51:49;0.30;99.90
16625;DHT22;8426;48.496;9.098;2024-03-02T05:56:55;0.50;99.90
16625;DHT22;8426;48.496;9.098;2024-03-02T06:01:59;0.60;99.90
16625;DHT22;8426;48.496;9.098;2024-03-02T06:07:03;0.50;99.90
16625;DHT22;8426;48.496;9.098;2024-03-02T06:12:08;0.50;99.90
16625;DHT22;8426;48.496;9.098;2024-03-02T06:17:12;0.40;99.90
16625;DHT22;8426;48.496;9.098;2024-03-02T06:22:15;0.40;99.90
16625;DHT22;8426;48.496;9.098;2024-03-02T06:27:20;0.50;99.90
16625;DHT22;8426;48.496;9.098;2024-03-02T06:32:24;0.80;99.90
16625;DHT22;8426;48.496;9.098;2024-03-02T06:37:27;1.10;99.90
16625;DHT22;8426;48.496;9.098;2024-03-02T06:42:33;1.30;99.90
16625;DHT22;8426;48.496;9.098;2024-03-02T06:47:37;1.20;99.90
16625;DHT22;8426;48.496;9.098;2024-03-02T06:52:40;1.20;99.90
16625;DHT22;8426;48.496;9.098;2024-03-02T06:57:48;1.50;99.90
16625;DHT22;8426;48.496;9.098;2024-03-02T07:02:54;2.00;99.90
16625;DHT22;8426;48.496;9.098;2024-03-02T07:07:57;2.90;99.90
16625;DHT22;8426;48.496;9.098;2024-03-02T07:13:03;4.30;99.90
16625;DHT22;8426;48.496;9.098;2024-03-02T07:18:06;6.00;99.90
16625;DHT22;8426;48.496;9.098;2024-03-02T07:23:10;7.20;99.90
16625;DHT22;8426;48.496;9.098;2024-03-02T07:28:15;6.80;99.90
16625;DHT22;8426;48.496;9.098;2024-03-02T07:33:22;6.00;99.90
16625;DHT22;8426;48.496;9.098;2024-03-02T07:38:25;5.40;99.90
16625;DHT22;8426;48.496;9.098;2024-03-02T07:43:31;5.00;99.90
16625;DHT22;8426;48.496;9.098;2024-03-02T07:48:35;4.90;99.90
16625;DHT22;8426;48.496;9.098;2024-03-02T07:53:40;4.90;99.90
16625;DHT22;8426;48.496;9.098;2024-03-02T07:58:45;5.10;99.90
16625;DHT22;8426;48.496;9.098;2024-03-02T08:03:50;5.70;99.90
16625;DHT22;8426;48.496;9.098;2024-03-02T08:08:55;7.20;99.90
16625;DHT22;8426;48.496;9.098;2024-03-02T08:14:01;9.10;99.90
16625;DHT22;8426;48.496;9.098;2024-03-02T08:19:04;9.50;99.90
16625;DHT22;8426;48.496;9.098;2024-03-02T08:24:11;9.40;99.90
16625;DHT22;8426;48.496;9.098;2024-03-02T08:29:18;9.90;99.90
16625;DHT22;8426;48.496;9.098;2024-03-02T08:34:22;10.20;99.90
16625;DHT22;8426;48.496;9.098;2024-03-02T08:39:25;10.30;99.90
16625;DHT22;8426;48.496;9.098;2024-03-02T08:44:31;10.00;99.90
16625;DHT22;8426;48.496;9.098;2024-03-02T08:49:35;9.90;99.90
16625;DHT22;8426;48.496;9.098;2024-03-02T08:54:39;10.60;99.90
16625;DHT22;8426;48.496;9.098;2024-03-02T08:59:44;11.90;99.90
16625;DHT22;8426;48.496;9.098;2024-03-02T09:04:49;13.70;99.90
16625;DHT22;8426;48.496;9.098;2024-03-02T09:09:52;14.50;99.90
16625;DHT22;8426;48.496;9.098;2024-03-02T09:14:58;15.30;99.90
16625;DHT22;8426;48.496;9.098;2024-03-02T09:20:01;15.90;99.90
16625;DHT22;8426;48.496;9.098;2024-03-02T09:25:07;16.80;99.90
16625;DHT22;8426;48.496;9.098;2024-03-02T09:30:13;16.40;99.90
16625;DHT22;8426;48.496;9.098;2024-03-02T09:35:17;16.50;99.90
16625;DHT22;8426;48.496;9.098;2024-03-02T09:40:22;17.30;99.90
16625;DHT22;8426;48.496;9.098;2024-03-02T09:45:27;17.50;99.90
16625;DHT22;8426;48.496;9.098;2024-03-02T09:50:31;17.50;99.90
16625;DHT22;8426;48.496;9.098;2024-03-02T09:55:34;17.30;99.90
16625;DHT22;8426;48.496;9.098;2024-03-02T10:00:39;17.30;99.90
16625;DHT22;8426;48.496;9.098;2024-03-02T10:05:44;16.60;99.90
16625;DHT22;8426;48.496;9.098;2024-03-02T10:10:47;16.30;99.90
16625;DHT22;8426;48.496;9.098;2024-03-02T10:15:52;14.50;99.90
16625;DHT22;8426;48.496;9.098;2024-03-02T10:21:13;13.80;99.90
16625;DHT22;8426;48.496;9.098;2024-03-02T10:26:17;13.60;99.90
16625;DHT22;8426;48.496;9.098;2024-03-02T10:31:23;13.30;99.90
16625;DHT22;8426;48.496;9.098;2024-03-02T10:36:30;13.20;99.90
16625;DHT22;8426;48.496;9.098;2024-03-02T10:41:34;13.00;99.90
16625;DHT22;8426;48.496;9.098;2024-03-02T10:46:39;13.30;99.90
16625;DHT22;8426;48.496;9.098;2024-03-02T10:51:43;13.30;99.90
16625;DHT22;8426;48.496;9.098;2024-03-02T10:56:46;13.60;99.90
16625;DHT22;8426;48.496;9.098;2024-03-02T11:01:55;13.50;99.90
16625;DHT22;8426;48.496;9.098;2024-03-02T11:07:05;14.10;99.90
16625;DHT22;8426;48.496;9.098;2024-03-02T11:12:13;14.60;99.90
16625;DHT22;8426;48.496;9.098;2024-03-02T11:17:22;14.20;99.90
16625;DHT22;8426;48.496;9.098;2024-03-02T11:22:26;14.40;99.90
16625;DHT22;8426;48.496;9.098;2024-03-02T11:28:01;14.80;99.90
16625;DHT22;8426;48.496;9.098;2024-03-02T11:33:07;14.80;99.90
16625;DHT22;8426;48.496;9.098;2024-03-02T11:38:14;14.50;99.90
16625;DHT22;8426;48.496;9.098;2024-03-02T11:43:18;14.40;99.90
16625;DHT22;8426;48.496;9.098;2024-03-02T11:48:25;14.60;99.90
16625;DHT22;8426;48.496;9.098;2024-03-02T11:53:31;15.10;99.90
16625;DHT22;8426;48.496;9.098;2024-03-02T11:58:39;15.00;99.90
16625;DHT22;8426;48.496;9.098;2024-03-02T12:03:45;15.00;99.90
16625;DHT22;8426;48.496;9.098;2024-03-02T12:08:52;15.30;99.90
16625;DHT22;8426;48.496;9.098;2024-03-02T12:13:57;15.40;99.90
16625;DHT22;8426;48.496;9.098;2024-03-02T12:19:03;15.40;99.90
16625;DHT22;8426;48.496;9.098;2024-03-02T12:24:07;15.30;99.90
16625;DHT22;8426;48.496;9.098;2024-03-02T12:29:11;15.40;99.90
16625;DHT22;8426;48.496;9.098;2024-03-02T12:34:18;15.70;99.90
16625;DHT22;8426;48.496;9.098;2024-03-02T12:39:22;15.60;99.90
16625;DHT22;8426;48.496;9.098;2024-03-02T12:44:26;15.70;99.90
16625;DHT22;8426;48.496;9.098;2024-03-02T12:49:32;15.60;99.90
16625;DHT22;8426;48.496;9.098;2024-03-02T12:54:36;15.70;99.90
16625;DHT22;8426;48.496;9.098;2024-03-02T12:59:45;15.90;99.90
16625;DHT22;8426;48.496;9.098;2024-03-02T13:04:54;15.80;99.90
16625;DHT22;8426;48.496;9.098;2024-03-02T13:10:00;15.90;99.90
16625;DHT22;8426;48.496;9.098;2024-03-02T13:15:04;16.00;99.90
16625;DHT22;8426;48.496;9.098;2024-03-02T13:20:10;16.10;99.90
16625;DHT22;8426;48.496;9.098;2024-03-02T13:25:15;15.80;99.90
16625;DHT22;8426;48.496;9.098;2024-03-02T13:30:19;16.00;99.90
16625;DHT22;8426;48.496;9.098;2024-03-02T13:35:24;16.00;99.90
16625;DHT22;8426;48.496;9.098;2024-03-02T13:40:34;15.80;99.90
16625;DHT22;8426;48.496;9.098;2024-03-02T13:45:38;15.50;99.90
16625;DHT22;8426;48.496;9.098;2024-03-02T13:50:43;15.50;99.90
16625;DHT22;8426;48.496;9.098;2024-03-02T13:55:47;15.10;99.90
16625;DHT22;8426;48.496;9.098;2024-03-02T14:00:51;14.90;99.90
16625;DHT22;8426;48.496;9.098;2024-03-02T14:05:57;15.00;99.90
16625;DHT22;8426;48.496;9.098;2024-03-02T14:11:01;15.30;99.90
16625;DHT22;8426;48.496;9.098;2024-03-02T14:16:06;15.30;99.90
16625;DHT22;8426;48.496;9.098;2024-03-02T14:21:12;15.40;99.90
16625;DHT22;8426;48.496;9.098;2024-03-02T14:26:16;15.60;99.90
16625;DHT22;8426;48.496;9.098;2024-03-02T14:31:20;15.60;99.90
16625;DHT22;8426;48.496;9.098;2024-03-02T14:36:25;15.60;99.90
16625;DHT22;8426;48.496;9.098;2024-03-02T14:41:30;15.60;99.90
16625;DHT22;8426;48.496;9.098;2024-03-02T14:46:34;15.60;99.90
16625;DHT22;8426;48.496;9.098;2024-03-02T14:51:39;15.40;99.90
16625;DHT22;8426;48.496;9.098;2024-03-02T14:56:43;15.40;99.90
16625;DHT22;8426;48.496;9.098;2024-03-02T15:01:47;15.30;99.90
16625;DHT22;8426;48.496;9.098;2024-03-02T15:06:58;14.90;99.90
16625;DHT22;8426;48.496;9.098;2024-03-02T15:12:02;14.60;99.90
16625;DHT22;8426;48.496;9.098;2024-03-02T15:17:06;14.30;99.90
16625;DHT22;8426;48.496;9.098;2024-03-02T15:22:11;13.90;99.90
16625;DHT22;8426;48.496;9.098;2024-03-02T15:27:15;13.80;99.90
16625;DHT22;8426;48.496;9.098;2024-03-02T15:32:21;13.90;99.90
16625;DHT22;8426;48.496;9.098;2024-03-02T15:37:26;13.70;99.90
16625;DHT22;8426;48.496;9.098;2024-03-02T15:42:30;13.60;99.90
16625;DHT22;8426;48.496;9.098;2024-03-02T15:47:33;13.40;99.90
16625;DHT22;8426;48.496;9.098;2024-03-02T15:52:39;13.40;99.90
16625;DHT22;8426;48.496;9.098;2024-03-02T15:57:43;13.30;99.90
16625;DHT22;8426;48.496;9.098;2024-03-02T16:02:47;13.20;99.90
16625;DHT22;8426;48.496;9.098;2024-03-02T16:07:52;13.10;99.90
16625;DHT22;8426;48.496;9.098;2024-03-02T16:12:56;13.10;99.90
16625;DHT22;8426;48.496;9.098;2024-03-02T16:18:02;12.90;99.90
16625;DHT22;8426;48.496;9.098;2024-03-02T16:23:07;12.90;99.90
16625;DHT22;8426;48.496;9.098;2024-03-02T16:28:11;12.70;99.90
16625;DHT22;8426;48.496;9.098;2024-03-02T16:33:15;12.50;99.90
16625;DHT22;8426;48.496;9.098;2024-03-02T16:38:20;12.30;99.90
16625;DHT22;8426;48.496;9.098;2024-03-02T16:43:24;12.00;99.90
16625;DHT22;8426;48.496;9.098;2024-03-02T16:48:29;11.80;99.90
16625;DHT22;8426;48.496;9.098;2024-03-02T16:53:35;11.60;99.90
16625;DHT22;8426;48.496;9.098;2024-03-02T16:58:38;11.40;99.90
16625;DHT22;8426;48.496;9.098;2024-03-02T17:03:42;11.10;99.90
16625;DHT22;8426;48.496;9.098;2024-03-02T17:08:51;11.00;99.90
16625;DHT22;8426;48.496;9.098;2024-03-02T17:13:55;11.10;99.90
16625;DHT22;8426;48.496;9.098;2024-03-02T17:19:00;11.20;99.90
16625;DHT22;8426;48.496;9.098;2024-03-02T17:24:05;11.20;99.90
16625;DHT22;8426;48.496;9.098;2024-03-02T17:29:09;11.20;99.90
16625;DHT22;8426;48.496;9.098;2024-03-02T17:34:13;11.30;99.90
16625;DHT22;8426;48.496;9.098;2024-03-02T17:39:18;11.10;99.90
16625;DHT22;8426;48.496;9.098;2024-03-02T17:44:22;10.90;99.90
16625;DHT22;8426;48.496;9.098;2024-03-02T17:49:25;10.90;99.90
16625;DHT22;8426;48.496;9.098;2024-03-02T17:54:32;10.90;99.90
16625;DHT22;8426;48.496;9.098;2024-03-02T17:59:37;10.90;99.90
16625;DHT22;8426;48.496;9.098;2024-03-02T18:04:41;10.80;99.90
16625;DHT22;8426;48.496;9.098;2024-03-02T18:09:46;10.80;99.90
16625;DHT22;8426;48.496;9.098;2024-03-02T18:14:50;10.70;99.90
16625;DHT22;8426;48.496;9.098;2024-03-02T18:19:53;10.70;99.90
16625;DHT22;8426;48.496;9.098;2024-03-02T18:24:58;10.60;99.90
16625;DHT22;8426;48.496;9.098;2024-03-02T18:30:03;10.50;99.90
16625;DHT22;8426;48.496;9.098;2024-03-02T18:35:12;10.40;99.90
16625;DHT22;8426;48.496;9.098;2024-03-02T18:40:17;10.40;99.90
16625;DHT22;8426;48.496;9.098;2024-03-02T18:45:21;10.30;99.90
16625;DHT22;8426;48.496;9.098;2024-03-02T18:50:24;10.30;99.90
16625;DHT22;8426;48.496;9.098;2024-03-02T18:55:30;10.20;99.90
16625;DHT22;8426;48.496;9.098;2024-03-02T19:00:33;10.00;99.90
16625;DHT22;8426;48.496;9.098;2024-03-02T19:05:37;9.90;99.90
16625;DHT22;8426;48.496;9.098;2024-03-02T19:10:42;9.80;99.90
16625;DHT22;8426;48.496;9.098;2024-03-02T19:15:46;9.70;99.90
16625;DHT22;8426;48.496;9.098;2024-03-02T19:20:50;9.60;99.90
16625;DHT22;8426;48.496;9.098;2024-03-02T19:25:55;9.60;99.90
16625;DHT22;8426;48.496;9.098;2024-03-02T19:30:58;9.50;99.90
16625;DHT22;8426;48.496;9.098;2024-03-02T19:36:02;9.40;99.90
16625;DHT22;8426;48.496;9.098;2024-03-02T19:41:08;9.20;99.90
16625;DHT22;8426;48.496;9.098;2024-03-02T19:46:11;9.30;99.90
16625;DHT22;8426;48.496;9.098;2024-03-02T19:51:16;9.20;99.90
16625;DHT22;8426;48.496;9.098;2024-03-02T19:56:21;9.00;99.90
16625;DHT22;8426;48.496;9.098;2024-03-02T20:01:25;9.10;99.90
16625;DHT22;8426;48.496;9.098;2024-03-02T20:06:29;9.00;99.90
16625;DHT22;8426;48.496;9.098;2024-03-02T20:11:35;8.90;99.90
16625;DHT22;8426;48.496;9.098;2024-03-02T20:16:42;8.80;99.90
16625;DHT22;8426;48.496;9.098;2024-03-02T20:21:46;8.70;99.90
16625;DHT22;8426;48.496;9.098;2024-03-02T20:26:51;8.80;99.90
16625;DHT22;8426;48.496;9.098;2024-03-02T20:31:55;8.60;99.90
16625;DHT22;8426;48.496;9.098;2024-03-02T20:37:00;8.40;99.90
16625;DHT22;8426;48.496;9.098;2024-03-02T20:42:07;8.10;99.90
16625;DHT22;8426;48.496;9.098;2024-03-02T20:47:11;7.90;99.90
16625;DHT22;8426;48.496;9.098;2024-03-02T20:52:15;7.90;99.90
16625;DHT22;8426;48.496;9.098;2024-03-02T20:57:23;7.90;99.90
16625;DHT22;8426;48.496;9.098;2024-03-02T21:02:27;8.10;99.90
16625;DHT22;8426;48.496;9.098;2024-03-02T21:07:30;8.40;99.90
16625;DHT22;8426;48.496;9.098;2024-03-02T21:12:38;8.70;99.90
16625;DHT22;8426;48.496;9.098;2024-03-02T21:17:42;8.80;99.90
16625;DHT22;8426;48.496;9.098;2024-03-02T21:22:45;8.80;99.90
16625;DHT22;8426;48.496;9.098;2024-03-02T21:27:54;8.80;99.90
16625;DHT22;8426;48.496;9.098;2024-03-02T21:32:58;8.80;99.90
16625;DHT22;8426;48.496;9.098;2024-03-02T21:38:03;8.70;99.90
16625;DHT22;8426;48.496;9.098;2024-03-02T21:43:11;8.80;99.90
16625;DHT22;8426;48.496;9.098;2024-03-02T21:48:15;8.70;99.90
16625;DHT22;8426;48.496;9.098;2024-03-02T21:53:18;8.70;99.90
16625;DHT22;8426;48.496;9.098;2024-03-02T21:58:23;8.60;99.90
16625;DHT22;8426;48.496;9.098;2024-03-02T22:03:27;8.50;99.90
16625;DHT22;8426;48.496;9.098;2024-03-02T22:08:32;8.50;99.90
16625;DHT22;8426;48.496;9.098;2024-03-02T22:13:37;8.40;99.90
16625;DHT22;8426;48.496;9.098;2024-03-02T22:18:42;8.30;99.90
16625;DHT22;8426;48.496;9.098;2024-03-02T22:23:46;8.20;99.90
16625;DHT22;8426;48.496;9.098;2024-03-02T22:28:51;8.20;99.90
16625;DHT22;8426;48.496;9.098;2024-03-02T22:33:54;8.10;99.90
16625;DHT22;8426;48.496;9.098;2024-03-02T22:38:58;8.10;99.90
16625;DHT22;8426;48.496;9.098;2024-03-02T22:44:03;8.00;99.90
16625;DHT22;8426;48.496;9.098;2024-03-02T22:49:07;7.90;99.90
16625;DHT22;8426;48.496;9.098;2024-03-02T22:54:11;7.90;99.90
16625;DHT22;8426;48.496;9.098;2024-03-02T22:59:15;7.90;99.90
16625;DHT22;8426;48.496;9.098;2024-03-02T23:04:19;7.90;99.90
16625;DHT22;8426;48.496;9.098;2024-03-02T23:09:23;8.00;99.90
16625;DHT22;8426;48.496;9.098;2024-03-02T23:14:28;8.00;99.90
16625;DHT22;8426;48.496;9.098;2024-03-02T23:19:33;8.00;99.90
16625;DHT22;8426;48.496;9.098;2024-03-02T23:24:37;7.90;99.90
16625;DHT22;8426;48.496;9.098;2024-03-02T23:29:43;7.60;99.90
16625;DHT22;8426;48.496;9.098;2024-03-02T23:34:47;7.40;99.90
16625;DHT22;8426;48.496;9.098;2024-03-02T23:39:50;7.30;99.90
16625;DHT22;8426;48.496;9.098;2024-03-02T23:45:21;7.20;99.90
16625;DHT22;8426;48.496;9.098;2024-03-02T23:50:25;7.00;99.90
16625;DHT22;8426;48.496;9.098;2024-03-02T23:55:28;7.00;99.90
